Time;durP1;ratioP1;P1;durP2;ratioP2;P2;SDS_P1;SDS_P2;PMS_P1;PMS_P2;Temp;Humidity;BMP_temperature;BMP_pressure;BME280_temperature;BME280_humidity;BME280_pressure;Samples;Min_cycle;Max_cycle;Signal;HPM_P1;HPM_P2
2023/01/25 00:01:02;;;;;;;3.08;1.58;;;10.80;99.90;;;;;;5103927;28;20071;-75
2023/01/25 00:03:30;;;;;;;3.33;1.88;;;10.80;99.90;;;;;;5085837;28;20040;-75
2023/01/25 00:06:00;;;;;;;2.17;1.67;;;10.90;99.90;;;;;;5102010;28;20039;-75
2023/01/25 00:08:28;;;;;;;3.25;2.00;;;10.90;99.90;;;;;;5103873;28;20123;-75
2023/01/25 00:10:55;;;;;;;1.88;1.20;;;10.90;99.90;;;;;;5101686;28;20047;-75
2023/01/25 00:13:25;;;;;;;2.60;1.52;;;10.90;99.90;;;;;;5102830;28;20055;-75
2023/01/25 00:15:52;;;;;;;3.25;1.73;;;10.90;99.90;;;;;;5085973;28;20403;-75
2023/01/25 00:18:20;;;;;;;3.13;1.67;;;10.90;99.90;;;;;;5103801;28;20094;-76
2023/01/25 00:20:47;;;;;;;9.38;2.17;;;10.90;99.90;;;;;;5066733;28;20051;-75
2023/01/25 00:23:15;;;;;;;3.33;1.80;;;10.90;99.90;;;;;;5070040;28;20059;-75
2023/01/25 00:25:42;;;;;;;4.65;2.00;;;10.90;99.90;;;;;;5087194;28;20138;-75
2023/01/25 00:28:10;;;;;;;3.10;1.60;;;10.90;99.90;;;;;;5104565;28;20036;-76
2023/01/25 00:30:37;;;;;;;6.35;1.48;;;10.90;99.90;;;;;;5088130;28;20067;-76
2023/01/25 00:33:17;;;;;;;2.00;1.45;;;11.00;99.90;;;;;;5105714;28;20035;-76
2023/01/25 00:35:44;;;;;;;2.15;1.45;;;10.90;99.90;;;;;;5079280;28;20122;-75
2023/01/25 00:38:33;;;;;;;3.83;1.50;;;10.90;99.90;;;;;;5086003;28;20102;-75
2023/01/25 00:41:00;;;;;;;1.73;1.33;;;10.90;99.90;;;;;;5084431;28;20047;-76
2023/01/25 00:43:28;;;;;;;2.42;1.33;;;11.00;99.90;;;;;;5103526;28;20044;-75
2023/01/25 00:46:02;;;;;;;7.10;1.88;;;11.00;99.90;;;;;;5104931;28;20558;-76
2023/01/25 00:48:30;;;;;;;2.92;1.88;;;11.00;99.90;;;;;;5104396;28;20051;-75
2023/01/25 00:51:01;;;;;;;4.18;1.25;;;11.10;99.90;;;;;;5086396;28;20078;-76
2023/01/25 00:53:31;;;;;;;3.10;1.67;;;11.00;99.90;;;;;;5104389;28;20077;-75
2023/01/25 00:55:59;;;;;;;2.83;1.45;;;11.00;99.90;;;;;;5098655;28;20448;-76
2023/01/25 00:58:26;;;;;;;3.25;1.67;;;11.00;99.90;;;;;;5102550;28;20508;-76
2023/01/25 01:00:55;;;;;;;1.92;1.38;;;11.00;99.90;;;;;;5085582;28;20444;-76
2023/01/25 01:03:24;;;;;;;3.38;1.98;;;11.00;99.90;;;;;;5102792;28;20413;-76
2023/01/25 01:06:00;;;;;;;2.05;1.48;;;11.10;99.90;;;;;;5086540;28;20122;-76
2023/01/25 01:08:27;;;;;;;3.90;1.15;;;11.00;99.90;;;;;;5100090;28;20046;-75
2023/01/25 01:11:00;;;;;;;2.80;1.52;;;11.00;99.90;;;;;;5084281;28;20197;-75
2023/01/25 01:13:28;;;;;;;2.17;1.58;;;11.10;99.90;;;;;;5098889;28;20055;-75
2023/01/25 01:16:01;;;;;;;2.88;1.70;;;11.10;99.90;;;;;;5102957;28;20062;-75
2023/01/25 01:18:34;;;;;;;2.70;1.65;;;11.10;99.90;;;;;;5101974;28;20051;-75
2023/01/25 01:21:01;;;;;;;2.30;1.05;;;11.10;99.90;;;;;;5100843;28;20089;-76
2023/01/25 01:23:29;;;;;;;1.42;1.00;;;11.10;99.90;;;;;;5102000;28;20821;-75
2023/01/25 01:26:06;;;;;;;1.63;1.10;;;11.10;99.90;;;;;;5090296;28;20109;-74
2023/01/25 01:28:35;;;;;;;3.60;1.55;;;11.10;99.90;;;;;;5080234;28;20073;-75
2023/01/25 01:31:04;;;;;;;3.13;1.63;;;11.10;99.90;;;;;;5104306;28;20160;-76
2023/01/25 01:33:35;;;;;;;4.07;1.50;;;11.10;99.90;;;;;;5085580;28;20058;-76
2023/01/25 01:36:11;;;;;;;2.70;1.70;;;11.10;99.90;;;;;;5072121;28;20558;-75
2023/01/25 01:38:39;;;;;;;;;;;11.10;99.90;;;;;;5073206;28;20047;-75
2023/01/25 01:41:07;;;;;;;6.20;2.65;;;11.10;99.90;;;;;;5111775;28;20377;-76
2023/01/25 01:43:36;;;;;;;4.70;2.95;;;11.10;99.90;;;;;;5093573;28;20130;-76
2023/01/25 01:46:20;;;;;;;4.38;2.00;;;11.10;99.90;;;;;;5093449;28;20485;-76
2023/01/25 01:49:07;;;;;;;4.63;3.38;;;11.10;99.90;;;;;;5065934;28;20047;-76
2023/01/25 01:51:43;;;;;;;6.40;3.80;;;11.00;99.90;;;;;;5077071;28;20140;-75
2023/01/25 01:54:28;;;;;;;6.07;3.50;;;11.00;99.90;;;;;;5093250;28;20055;-75
2023/01/25 01:56:56;;;;;;;7.13;4.30;;;11.00;99.90;;;;;;5096349;28;20152;-75
2023/01/25 01:59:29;;;;;;;6.82;3.90;;;11.00;99.90;;;;;;5076053;28;20059;-76
2023/01/25 02:01:57;;;;;;;3.75;2.60;;;11.00;99.90;;;;;;5076016;28;20051;-75
2023/01/25 02:04:26;;;;;;;4.80;3.45;;;11.00;99.90;;;;;;5076380;28;20043;-76
2023/01/25 02:07:13;;;;;;;5.45;2.65;;;11.00;99.90;;;;;;5093078;28;20054;-75
2023/01/25 02:09:44;;;;;;;4.68;2.38;;;10.90;99.90;;;;;;5059578;28;20142;-75
2023/01/25 02:12:12;;;;;;;2.55;1.80;;;10.90;99.90;;;;;;5093083;28;20136;-76
2023/01/25 02:14:47;;;;;;;3.60;2.40;;;10.90;99.90;;;;;;5093275;28;20100;-75
2023/01/25 02:17:27;;;;;;;4.13;2.85;;;10.90;99.90;;;;;;5074703;28;20055;-76
2023/01/25 02:20:04;;;;;;;4.22;2.90;;;10.90;99.90;;;;;;5091854;28;20496;-76
2023/01/25 02:22:42;;;;;;;4.85;2.63;;;10.90;99.90;;;;;;5092792;28;20542;-75
2023/01/25 02:25:12;;;;;;;6.85;2.38;;;10.80;99.90;;;;;;5075809;28;20047;-75
2023/01/25 02:27:50;;;;;;;3.13;2.30;;;10.90;99.90;;;;;;5091624;28;20044;-75
2023/01/25 02:30:17;;;;;;;5.30;2.63;;;10.80;99.90;;;;;;5092763;28;20044;-75
2023/01/25 02:32:45;;;;;;;3.92;2.53;;;10.80;99.90;;;;;;5092563;28;20086;-75
2023/01/25 02:35:35;;;;;;;5.15;2.75;;;10.80;99.90;;;;;;5074653;28;20047;-75
2023/01/25 02:38:05;;;;;;;5.25;3.03;;;10.70;99.90;;;;;;5092357;28;20394;-76
2023/01/25 02:40:39;;;;;;;6.25;3.00;;;10.80;99.90;;;;;;5072127;28;20072;-75
2023/01/25 02:43:07;;;;;;;3.75;2.40;;;10.80;99.90;;;;;;5106351;28;20183;-76
2023/01/25 02:45:35;;;;;;;3.88;2.28;;;10.70;99.90;;;;;;5107830;28;20039;-75
2023/01/25 02:48:02;;;;;;;7.43;3.03;;;10.70;99.90;;;;;;5091728;28;20059;-75
2023/01/25 02:50:30;;;;;;;5.38;2.80;;;10.80;99.90;;;;;;5089053;28;20040;-76
2023/01/25 02:52:58;;;;;;;4.38;3.03;;;10.70;99.90;;;;;;5058993;28;20134;-76
2023/01/25 02:55:26;;;;;;;4.10;2.60;;;10.70;99.90;;;;;;5091709;28;20043;-75
2023/01/25 02:57:53;;;;;;;4.63;1.98;;;10.80;99.90;;;;;;5074317;28;20400;-75
2023/01/25 03:00:21;;;;;;;4.05;2.47;;;10.70;99.90;;;;;;5109693;28;20055;-76
2023/01/25 03:02:48;;;;;;;4.57;3.03;;;10.70;99.90;;;;;;5110394;28;20470;-76
2023/01/25 03:05:16;;;;;;;4.40;2.10;;;10.70;99.90;;;;;;5110067;28;20134;-76
2023/01/25 03:07:43;;;;;;;3.95;2.63;;;10.70;99.90;;;;;;5074980;28;20404;-75
2023/01/25 03:10:12;;;;;;;3.40;2.78;;;10.70;99.90;;;;;;5074108;28;20047;-76
2023/01/25 03:12:42;;;;;;;4.18;2.30;;;10.70;99.90;;;;;;5091692;28;20127;-76
2023/01/25 03:15:09;;;;;;;4.65;2.30;;;10.70;99.90;;;;;;5074379;28;20052;-76
2023/01/25 03:17:37;;;;;;;4.50;2.83;;;10.70;99.90;;;;;;5091083;28;20043;-75
2023/01/25 03:20:05;;;;;;;5.60;3.08;;;10.70;99.90;;;;;;5071338;28;20044;-75
2023/01/25 03:22:34;;;;;;;3.70;2.83;;;10.70;99.90;;;;;;5054584;28;20486;-75
2023/01/25 03:25:01;;;;;;;4.68;3.08;;;10.70;99.90;;;;;;5071568;28;20123;-75
2023/01/25 03:27:29;;;;;;;6.05;2.80;;;10.60;99.90;;;;;;5071144;28;20093;-75
2023/01/25 03:30:08;;;;;;;3.90;2.25;;;10.70;99.90;;;;;;5062536;28;20050;-75
2023/01/25 03:32:37;;;;;;;6.35;3.22;;;10.60;99.90;;;;;;5091695;28;20568;-76
2023/01/25 03:35:08;;;;;;;4.75;3.60;;;10.70;99.90;;;;;;5091785;28;20497;-75
2023/01/25 03:37:36;;;;;;;4.32;2.95;;;10.60;99.90;;;;;;5074703;28;20450;-76
2023/01/25 03:40:05;;;;;;;4.55;3.15;;;10.60;99.90;;;;;;5061036;27;20047;-75
2023/01/25 03:42:33;;;;;;;7.70;3.55;;;10.60;99.90;;;;;;5108742;28;20126;-76
2023/01/25 03:45:02;;;;;;;6.10;3.55;;;10.60;99.90;;;;;;5091866;28;20042;-75
2023/01/25 03:47:30;;;;;;;5.50;4.38;;;10.60;99.90;;;;;;5090657;28;20445;-75
2023/01/25 03:49:58;;;;;;;5.93;3.50;;;10.60;99.90;;;;;;5091591;28;20137;-75
2023/01/25 03:53:28;;;;;;;5.40;2.90;;;10.70;99.90;;;;;;5108801;28;20051;-76
2023/01/25 03:56:10;;;;;;;6.00;3.38;;;10.70;99.90;;;;;;5070726;28;20039;-76
2023/01/25 03:58:45;;;;;;;6.45;3.97;;;10.70;99.90;;;;;;5088091;28;20044;-76
2023/01/25 04:01:13;;;;;;;5.38;3.33;;;10.70;99.90;;;;;;5091007;28;20436;-75
2023/01/25 04:03:40;;;;;;;6.63;4.03;;;10.70;99.90;;;;;;5090538;28;20134;-75
2023/01/25 04:06:09;;;;;;;4.75;3.22;;;10.70;99.90;;;;;;5074533;28;20039;-76
2023/01/25 04:08:38;;;;;;;5.15;3.38;;;10.80;99.90;;;;;;5090901;28;20094;-76
2023/01/25 04:11:08;;;;;;;5.85;3.95;;;10.80;99.90;;;;;;5090346;28;20085;-76
2023/01/25 04:13:37;;;;;;;6.03;3.38;;;10.80;99.90;;;;;;5073813;28;20063;-75
2023/01/25 04:16:12;;;;;;;6.43;4.28;;;10.80;99.90;;;;;;5070195;28;20050;-76
2023/01/25 04:19:08;;;;;;;5.93;3.33;;;10.80;99.90;;;;;;5061743;28;20059;-75
2023/01/25 04:21:37;;;;;;;6.15;3.38;;;10.90;99.90;;;;;;5057758;28;20048;-75
2023/01/25 04:24:05;;;;;;;6.97;4.80;;;10.90;99.90;;;;;;5069564;28;20084;-76
2023/01/25 04:26:39;;;;;;;9.63;6.60;;;10.90;99.90;;;;;;5082390;28;20857;-75
2023/01/25 04:29:06;;;;;;;8.20;6.38;;;10.90;99.90;;;;;;5074173;28;20506;-75
2023/01/25 04:31:34;;;;;;;8.07;7.05;;;11.00;99.90;;;;;;5073341;28;20048;-75
2023/01/25 04:34:03;;;;;;;6.15;4.38;;;11.00;99.90;;;;;;5090519;28;20113;-76
2023/01/25 04:36:30;;;;;;;6.32;3.65;;;11.00;99.90;;;;;;5090214;28;20074;-75
2023/01/25 04:38:58;;;;;;;6.68;4.68;;;11.00;99.90;;;;;;5072940;28;20146;-76
2023/01/25 04:41:28;;;;;;;9.52;7.03;;;11.00;99.90;;;;;;5073153;28;20044;-75
2023/01/25 04:43:56;;;;;;;7.38;6.10;;;11.00;99.90;;;;;;5072601;28;20109;-75
2023/01/25 04:46:24;;;;;;;5.88;3.72;;;11.00;99.90;;;;;;5089530;28;20048;-75
2023/01/25 04:48:54;;;;;;;4.78;3.03;;;11.00;99.90;;;;;;5073225;28;20455;-75
2023/01/25 04:51:21;;;;;;;5.32;2.50;;;11.00;99.90;;;;;;5072742;28;20442;-75
2023/01/25 04:53:49;;;;;;;5.45;3.53;;;11.00;99.90;;;;;;5088919;28;20116;-76
2023/01/25 04:56:16;;;;;;;6.15;3.10;;;11.00;99.90;;;;;;5101880;28;20043;-75
2023/01/25 04:58:52;;;;;;;5.45;3.35;;;11.10;99.90;;;;;;5092362;28;20565;-76
2023/01/25 05:01:20;;;;;;;4.55;2.75;;;11.00;99.90;;;;;;5094186;28;20039;-75
2023/01/25 05:03:49;;;;;;;4.78;3.13;;;11.00;99.90;;;;;;5060499;28;20051;-75
2023/01/25 05:06:37;;;;;;;10.10;7.43;;;11.00;99.90;;;;;;5111562;28;20063;-76
2023/01/25 05:09:05;;;;;;;7.47;6.70;;;11.00;99.90;;;;;;5094028;28;20043;-75
2023/01/25 05:11:34;;;;;;;5.90;3.90;;;11.00;99.90;;;;;;5077805;28;20493;-75
2023/01/25 05:14:18;;;;;;;8.43;4.47;;;11.10;99.90;;;;;;5094064;28;20377;-75
2023/01/25 05:16:46;;;;;;;5.90;4.10;;;11.10;99.90;;;;;;5094219;28;20043;-75
2023/01/25 05:19:14;;;;;;;4.78;3.58;;;11.10;99.90;;;;;;5077338;28;20066;-75
2023/01/25 05:21:59;;;;;;;9.75;5.13;;;11.10;99.90;;;;;;5078709;28;20050;-76
2023/01/25 05:24:40;;;;;;;6.90;3.28;;;11.10;99.90;;;;;;5112101;28;20056;-76
2023/01/25 05:27:12;;;;;;;7.63;3.92;;;11.10;99.90;;;;;;5092890;28;20044;-75
2023/01/25 05:29:56;;;;;;;4.43;3.30;;;11.10;99.90;;;;;;5078672;28;20450;-76
2023/01/25 05:32:32;;;;;;;5.00;4.13;;;11.20;99.90;;;;;;5094450;27;20401;-76
2023/01/25 05:35:00;;;;;;;5.32;3.70;;;11.20;99.90;;;;;;5097748;28;20046;-76
2023/01/25 05:37:29;;;;;;;4.25;3.60;;;11.20;99.90;;;;;;5073312;28;20048;-76
2023/01/25 05:40:10;;;;;;;4.82;3.47;;;11.20;99.90;;;;;;5090757;28;20046;-76
2023/01/25 05:42:38;;;;;;;5.28;2.58;;;11.10;99.90;;;;;;5106872;28;20054;-75
2023/01/25 05:45:13;;;;;;;4.75;2.10;;;11.10;99.90;;;;;;5091014;28;20485;-76
2023/01/25 05:47:42;;;;;;;5.38;2.30;;;10.90;99.90;;;;;;5092985;28;20058;-75
2023/01/25 05:50:10;;;;;;;4.38;2.47;;;10.80;99.90;;;;;;5093328;28;20047;-76
2023/01/25 05:52:52;;;;;;;6.47;3.30;;;10.70;99.90;;;;;;5078810;28;20382;-76
2023/01/25 05:55:20;;;;;;;4.82;1.98;;;10.50;99.90;;;;;;5093317;28;20039;-76
2023/01/25 05:57:49;;;;;;;4.13;2.13;;;10.30;99.90;;;;;;5089660;28;20047;-77
2023/01/25 06:00:17;;;;;;;4.13;2.25;;;10.20;99.90;;;;;;5091258;28;20090;-76
2023/01/25 06:02:45;;;;;;;4.55;1.95;;;10.20;99.90;;;;;;5091067;28;20238;-76
2023/01/25 06:05:20;;;;;;;3.22;1.73;;;10.10;99.90;;;;;;5078366;28;20046;-76
2023/01/25 06:07:50;;;;;;;2.72;1.45;;;10.10;99.90;;;;;;5072403;28;20046;-76
2023/01/25 06:10:21;;;;;;;3.78;1.42;;;10.10;99.90;;;;;;5054913;28;20130;-76
2023/01/25 06:12:50;;;;;;;1.98;1.23;;;10.10;99.90;;;;;;5058133;28;20546;-74
2023/01/25 06:15:17;;;;;;;2.78;1.15;;;10.00;99.90;;;;;;5125179;27;20404;-74
2023/01/25 06:17:45;;;;;;;4.22;2.10;;;10.00;99.90;;;;;;5073477;28;20047;-74
2023/01/25 06:20:28;;;;;;;2.22;1.60;;;9.90;99.90;;;;;;5090932;28;20528;-73
2023/01/25 06:23:04;;;;;;;3.10;1.40;;;9.90;99.90;;;;;;5100893;28;20048;-73
2023/01/25 06:25:32;;;;;;;3.08;1.40;;;9.90;99.90;;;;;;5103888;28;20080;-74
2023/01/25 06:27:59;;;;;;;2.42;1.33;;;10.00;99.90;;;;;;5108297;28;20043;-74
2023/01/25 06:30:27;;;;;;;3.17;1.55;;;10.00;99.90;;;;;;5101267;28;20032;-74
2023/01/25 06:32:57;;;;;;;3.42;1.88;;;10.00;99.90;;;;;;5099688;28;20100;-74
2023/01/25 06:35:25;;;;;;;3.28;1.67;;;10.00;99.90;;;;;;5108372;28;20143;-74
2023/01/25 06:37:56;;;;;;;5.43;1.95;;;10.00;99.90;;;;;;5109240;28;20089;-74
2023/01/25 06:40:25;;;;;;;3.78;1.80;;;9.90;99.90;;;;;;5108195;28;20751;-75
2023/01/25 06:42:53;;;;;;;3.45;2.40;;;10.00;99.90;;;;;;5089874;28;20387;-74
2023/01/25 06:45:21;;;;;;;5.03;2.50;;;9.90;99.90;;;;;;5096297;28;20078;-74
2023/01/25 06:47:50;;;;;;;2.42;1.70;;;9.90;99.90;;;;;;5070234;28;20044;-74
2023/01/25 06:50:18;;;;;;;4.60;1.83;;;10.00;99.90;;;;;;5106099;28;20044;-74
2023/01/25 06:52:53;;;;;;;5.45;2.17;;;9.90;99.90;;;;;;5106127;28;20150;-74
2023/01/25 06:55:21;;;;;;;7.07;2.83;;;10.00;99.90;;;;;;5087591;28;20109;-73
2023/01/25 06:57:49;;;;;;;6.82;3.15;;;10.00;99.90;;;;;;5088767;28;20040;-73
2023/01/25 07:00:17;;;;;;;6.32;3.20;;;10.10;99.90;;;;;;5110465;27;20044;-73
2023/01/25 07:02:44;;;;;;;4.88;3.05;;;10.10;99.90;;;;;;5102762;28;20126;-73
2023/01/25 07:05:11;;;;;;;9.65;4.53;;;10.20;99.90;;;;;;5103626;28;20350;-73
2023/01/25 07:07:39;;;;;;;12.77;7.78;;;10.20;99.90;;;;;;5082390;28;20139;-73
2023/01/25 07:10:07;;;;;;;12.02;8.98;;;10.30;99.90;;;;;;5104490;28;20036;-73
2023/01/25 07:12:35;;;;;;;12.95;8.10;;;10.30;99.90;;;;;;5102698;28;20039;-73
2023/01/25 07:15:03;;;;;;;14.32;7.90;;;10.30;99.90;;;;;;5108005;28;20092;-73
2023/01/25 07:17:31;;;;;;;9.20;5.55;;;10.40;99.90;;;;;;5099063;28;20393;-73
2023/01/25 07:19:58;;;;;;;5.65;4.10;;;10.40;99.90;;;;;;5107586;28;20047;-73
2023/01/25 07:22:25;;;;;;;8.48;4.72;;;10.50;99.90;;;;;;5106797;28;20062;-73
2023/01/25 07:24:56;;;;;;;9.65;4.90;;;10.50;99.90;;;;;;5086941;28;20051;-74
2023/01/25 07:27:23;;;;;;;9.85;4.35;;;10.50;99.90;;;;;;5102664;28;20048;-74
2023/01/25 07:29:51;;;;;;;7.82;5.85;;;10.60;99.90;;;;;;5088230;28;20063;-74
2023/01/25 07:32:18;;;;;;;6.32;3.83;;;10.60;99.90;;;;;;5103024;28;20051;-74
2023/01/25 07:34:46;;;;;;;7.65;5.50;;;10.60;99.90;;;;;;5106698;28;20105;-74
2023/01/25 07:37:13;;;;;;;11.68;4.97;;;10.60;99.90;;;;;;5103961;28;20056;-74
2023/01/25 07:39:47;;;;;;;11.93;3.22;;;10.60;99.90;;;;;;5106274;28;20100;-74
2023/01/25 07:42:14;;;;;;;7.45;4.90;;;10.50;99.90;;;;;;5091716;28;20122;-74
2023/01/25 07:44:50;;;;;;;10.20;7.78;;;10.50;99.90;;;;;;5084828;28;20048;-74
2023/01/25 07:47:18;;;;;;;4.30;2.97;;;10.50;99.90;;;;;;5104102;28;20067;-75
2023/01/25 07:49:45;;;;;;;3.95;2.30;;;10.50;99.90;;;;;;5087052;28;20071;-74
2023/01/25 07:52:13;;;;;;;4.18;2.53;;;10.50;99.90;;;;;;5098153;28;20048;-74
2023/01/25 07:54:40;;;;;;;8.15;3.25;;;10.50;99.90;;;;;;5107528;28;20484;-74
2023/01/25 07:57:08;;;;;;;6.10;3.65;;;10.50;99.90;;;;;;5101359;28;20044;-74
2023/01/25 07:59:36;;;;;;;6.50;3.28;;;10.60;99.90;;;;;;5081175;28;20058;-74
2023/01/25 08:02:04;;;;;;;9.00;5.55;;;10.60;99.90;;;;;;5078792;28;20044;-74
2023/01/25 08:04:31;;;;;;;10.30;5.13;;;10.60;99.90;;;;;;5085215;28;20060;-73
2023/01/25 08:06:59;;;;;;;8.32;3.92;;;10.70;99.90;;;;;;5100633;28;20035;-75
2023/01/25 08:09:27;;;;;;;8.20;4.18;;;10.80;99.90;;;;;;5075584;28;20585;-74
2023/01/25 08:11:57;;;;;;;8.93;4.60;;;10.80;99.90;;;;;;5065419;28;20521;-74
2023/01/25 08:14:24;;;;;;;7.05;3.90;;;10.80;99.90;;;;;;5091213;28;20420;-73
2023/01/25 08:16:52;;;;;;;10.23;4.22;;;10.80;99.90;;;;;;5080599;28;20048;-73
2023/01/25 08:19:21;;;;;;;9.93;4.43;;;10.80;99.90;;;;;;5102047;28;20109;-74
2023/01/25 08:21:48;;;;;;;6.10;3.20;;;10.90;99.90;;;;;;5082837;28;20039;-75
2023/01/25 08:24:17;;;;;;;5.53;3.15;;;11.00;99.90;;;;;;5074222;28;20052;-76
2023/01/25 08:26:46;;;;;;;8.00;3.78;;;11.00;99.90;;;;;;5085785;28;20048;-76
2023/01/25 08:29:14;;;;;;;10.55;4.93;;;11.00;99.90;;;;;;5098499;28;20400;-75
2023/01/25 08:31:45;;;;;;;9.80;6.13;;;11.10;99.90;;;;;;5105263;28;20048;-76
2023/01/25 08:34:15;;;;;;;13.13;5.72;;;11.10;99.90;;;;;;5106064;28;20124;-75
2023/01/25 08:36:46;;;;;;;9.35;5.75;;;11.20;99.90;;;;;;5086558;28;20051;-75
2023/01/25 08:39:13;;;;;;;12.60;8.45;;;11.30;99.90;;;;;;5084407;28;20036;-74
2023/01/25 08:41:41;;;;;;;8.40;5.95;;;11.30;99.90;;;;;;5084083;28;20043;-75
2023/01/25 08:44:09;;;;;;;9.95;5.13;;;11.30;99.90;;;;;;5086714;28;20043;-75
2023/01/25 08:46:36;;;;;;;10.30;5.75;;;11.30;99.90;;;;;;5099099;28;20036;-74
2023/01/25 08:49:04;;;;;;;10.52;4.95;;;11.40;99.90;;;;;;5106270;28;20597;-74
2023/01/25 08:51:32;;;;;;;9.57;5.80;;;11.30;99.90;;;;;;5105257;28;20047;-75
2023/01/25 08:54:07;;;;;;;8.27;4.50;;;11.40;99.90;;;;;;5085234;28;20040;-75
2023/01/25 08:56:39;;;;;;;8.88;3.70;;;11.40;99.90;;;;;;5106541;28;20050;-75
2023/01/25 08:59:11;;;;;;;5.75;2.95;;;11.40;99.90;;;;;;5106444;28;20044;-75
2023/01/25 09:01:39;;;;;;;10.70;3.20;;;11.30;99.90;;;;;;5088250;28;20148;-74
2023/01/25 09:04:07;;;;;;;8.02;2.78;;;11.20;99.90;;;;;;5088922;28;20071;-75
2023/01/25 09:06:34;;;;;;;6.82;2.55;;;11.20;99.90;;;;;;5105525;28;20374;-75
2023/01/25 09:09:03;;;;;;;10.65;3.85;;;11.20;99.90;;;;;;5090621;28;20036;-75
2023/01/25 09:11:33;;;;;;;7.65;3.95;;;11.20;99.90;;;;;;5108564;28;20051;-74
2023/01/25 09:14:01;;;;;;;7.28;3.33;;;11.10;99.90;;;;;;5081721;28;20046;-74
2023/01/25 09:16:29;;;;;;;9.38;3.45;;;11.10;99.90;;;;;;5107905;28;20160;-75
2023/01/25 09:18:59;;;;;;;5.50;3.17;;;11.10;99.90;;;;;;5108151;28;20044;-75
2023/01/25 09:21:28;;;;;;;5.43;3.42;;;11.20;99.90;;;;;;5063418;28;20051;-74
2023/01/25 09:23:57;;;;;;;7.35;3.45;;;11.20;99.90;;;;;;5104801;28;20044;-75
2023/01/25 09:26:35;;;;;;;9.73;3.60;;;11.30;99.90;;;;;;5087629;28;20135;-75
2023/01/25 09:29:04;;;;;;;9.48;3.65;;;11.40;99.90;;;;;;5073263;28;20079;-75
2023/01/25 09:31:32;;;;;;;5.07;2.75;;;11.40;99.90;;;;;;5085736;28;20124;-76
2023/01/25 09:34:26;;;;;;;10.20;5.18;;;11.40;99.90;;;;;;5080137;28;20565;-75
2023/01/25 09:36:53;;;;;;;15.98;5.97;;;11.40;99.90;;;;;;5066876;28;20051;-77
2023/01/25 09:39:21;;;;;;;7.93;4.20;;;11.40;99.90;;;;;;5107177;28;20094;-75
2023/01/25 09:42:10;;;;;;;6.85;3.35;;;11.40;99.90;;;;;;5085579;28;20151;-75
2023/01/25 09:45:02;;;;;;;6.20;3.25;;;11.40;99.90;;;;;;5108781;27;20056;-75
2023/01/25 09:47:37;;;;;;;8.25;3.35;;;11.50;99.90;;;;;;5090338;28;20076;-75
2023/01/25 09:50:27;;;;;;;8.90;3.80;;;11.60;99.90;;;;;;5091100;28;20149;-75
2023/01/25 09:53:15;;;;;;;10.85;4.15;;;11.80;99.90;;;;;;5083828;28;20429;-75
2023/01/25 09:55:44;;;;;;;5.80;3.05;;;11.90;99.90;;;;;;5111483;28;20048;-75
2023/01/25 09:58:18;;;;;;;7.10;3.55;;;11.90;99.90;;;;;;5111946;28;20042;-75
2023/01/25 10:00:48;;;;;;;8.10;4.28;;;11.90;99.90;;;;;;5093330;28;20036;-75
2023/01/25 10:03:25;;;;;;;6.43;3.65;;;11.80;99.90;;;;;;5109669;28;20052;-75
2023/01/25 10:05:53;;;;;;;;;;;11.70;99.90;;;;;;5092078;28;20507;-75
2023/01/25 10:08:37;;;;;;;9.30;3.13;;;11.60;99.90;;;;;;5110143;28;19920;-76
2023/01/25 10:11:25;;;;;;;9.35;3.55;;;11.60;99.90;;;;;;5090726;28;20062;-75
2023/01/25 10:13:54;;;;;;;;;;;11.50;99.90;;;;;;5092258;28;20047;-75
2023/01/25 10:16:42;;;;;;;7.63;3.67;;;11.30;99.90;;;;;;5102857;28;19988;-75
2023/01/25 10:19:37;;;;;;;7.18;3.13;;;11.30;99.90;;;;;;5104976;28;20046;-75
2023/01/25 10:22:19;;;;;;;8.15;3.80;;;11.30;99.90;;;;;;5109801;28;20104;-75
2023/01/25 10:25:06;;;;;;;5.18;2.63;;;11.30;99.90;;;;;;5091311;28;20056;-75
2023/01/25 10:27:52;;;;;;;;;;;11.30;99.90;;;;;;5093540;28;20139;-75
2023/01/25 10:30:27;;;;;;;10.77;4.05;;;11.30;99.90;;;;;;5087058;28;20437;-75
2023/01/25 10:32:59;;;;;;;8.65;3.10;;;11.40;99.90;;;;;;5110535;28;20096;-75
2023/01/25 10:35:31;;;;;;;7.43;3.38;;;11.40;99.90;;;;;;5074164;28;20091;-75
2023/01/25 10:38:10;;;;;;;4.30;2.92;;;11.50;99.90;;;;;;5084322;28;20081;-75
2023/01/25 10:40:53;;;;;;;7.70;4.53;;;11.60;99.90;;;;;;5108854;28;20228;-75
2023/01/25 10:43:21;;;;;;;7.10;4.15;;;11.70;99.90;;;;;;5087790;28;20039;-76
2023/01/25 10:45:50;;;;;;;11.15;3.10;;;11.70;99.90;;;;;;5109820;28;20058;-76
2023/01/25 10:48:30;;;;;;;5.93;2.85;;;11.70;99.90;;;;;;5073929;28;20134;-75
2023/01/25 10:50:58;;;;;;;7.93;2.72;;;11.70;99.90;;;;;;5083896;28;20047;-75
2023/01/25 10:53:27;;;;;;;7.32;3.50;;;11.70;99.90;;;;;;5110270;28;20417;-76
2023/01/25 10:56:10;;;;;;;12.93;3.33;;;11.70;99.90;;;;;;5073850;28;20032;-76
2023/01/25 10:58:46;;;;;;;13.07;4.53;;;11.70;99.90;;;;;;5106168;28;20463;-75
2023/01/25 11:01:26;;;;;;;11.27;3.45;;;11.70;99.90;;;;;;5097800;28;20052;-76
2023/01/25 11:03:55;;;;;;;14.07;4.70;;;11.60;99.90;;;;;;5122840;27;20571;-76
2023/01/25 11:06:37;;;;;;;6.25;3.95;;;11.60;99.90;;;;;;5110532;28;20123;-76
2023/01/25 11:14:00;;;;;;;6.72;3.85;;;11.60;99.90;;;;;;5110355;28;20030;-76
2023/01/25 11:21:28;;;;;;;6.18;2.97;;;11.40;99.90;;;;;;5044931;28;20064;-75
